sensor_id;sensor_type;location;lat;lon;timestamp;P1;durP1;ratioP1;P2;durP2;ratioP2
4422;SDS011;2224;49.814;8.650;2023-05-09T00:00:44;17.10;;;14.50;;
4422;SDS011;2224;49.814;8.650;2023-05-09T00:03:10;14.20;;;12.70;;
4422;SDS011;2224;49.814;8.650;2023-05-09T00:05:36;13.93;;;12.40;;
4422;SDS011;2224;49.814;8.650;2023-05-09T00:08:02;14.57;;;13.20;;
4422;SDS011;2224;49.814;8.650;2023-05-09T00:10:27;14.30;;;13.00;;
4422;SDS011;2224;49.814;8.650;2023-05-09T00:12:53;15.50;;;13.57;;
4422;SDS011;2224;49.814;8.650;2023-05-09T00:15:18;13.20;;;11.83;;
4422;SDS011;2224;49.814;8.650;2023-05-09T00:17:43;12.20;;;11.07;;
4422;SDS011;2224;49.814;8.650;2023-05-09T00:20:09;13.07;;;11.80;;
4422;SDS011;2224;49.814;8.650;2023-05-09T00:22:36;14.37;;;13.07;;
4422;SDS011;2224;49.814;8.650;2023-05-09T00:25:02;14.20;;;12.80;;
4422;SDS011;2224;49.814;8.650;2023-05-09T00:27:27;14.53;;;13.13;;
4422;SDS011;2224;49.814;8.650;2023-05-09T00:29:54;13.83;;;12.63;;
4422;SDS011;2224;49.814;8.650;2023-05-09T00:32:20;13.63;;;12.17;;
4422;SDS011;2224;49.814;8.650;2023-05-09T00:34:45;15.53;;;14.10;;
4422;SDS011;2224;49.814;8.650;2023-05-09T00:37:11;14.47;;;13.10;;
4422;SDS011;2224;49.814;8.650;2023-05-09T00:39:36;15.13;;;13.70;;
4422;SDS011;2224;49.814;8.650;2023-05-09T00:42:01;15.30;;;13.70;;
4422;SDS011;2224;49.814;8.650;2023-05-09T00:44:27;15.87;;;14.03;;
4422;SDS011;2224;49.814;8.650;2023-05-09T00:46:52;15.70;;;14.20;;
4422;SDS011;2224;49.814;8.650;2023-05-09T00:49:18;15.50;;;14.07;;
4422;SDS011;2224;49.814;8.650;2023-05-09T00:51:43;15.60;;;13.77;;
4422;SDS011;2224;49.814;8.650;2023-05-09T00:54:09;15.67;;;14.10;;
4422;SDS011;2224;49.814;8.650;2023-05-09T00:56:36;15.13;;;13.60;;
4422;SDS011;2224;49.814;8.650;2023-05-09T00:59:01;16.73;;;14.67;;
4422;SDS011;2224;49.814;8.650;2023-05-09T01:01:27;15.60;;;14.07;;
4422;SDS011;2224;49.814;8.650;2023-05-09T01:03:52;14.50;;;13.23;;
4422;SDS011;2224;49.814;8.650;2023-05-09T01:06:21;16.70;;;15.20;;
4422;SDS011;2224;49.814;8.650;2023-05-09T01:11:33;16.13;;;14.53;;
4422;SDS011;2224;49.814;8.650;2023-05-09T01:14:23;16.90;;;15.20;;
4422;SDS011;2224;49.814;8.650;2023-05-09T01:22:35;19.60;;;16.30;;
4422;SDS011;2224;49.814;8.650;2023-05-09T01:28:13;18.23;;;16.43;;
4422;SDS011;2224;49.814;8.650;2023-05-09T01:30:44;18.17;;;16.37;;
4422;SDS011;2224;49.814;8.650;2023-05-09T01:33:12;18.00;;;16.30;;
4422;SDS011;2224;49.814;8.650;2023-05-09T01:35:41;18.50;;;16.60;;
4422;SDS011;2224;49.814;8.650;2023-05-09T01:38:11;19.30;;;17.30;;
4422;SDS011;2224;49.814;8.650;2023-05-09T01:40:38;19.90;;;17.47;;
4422;SDS011;2224;49.814;8.650;2023-05-09T01:43:06;18.20;;;16.40;;
4422;SDS011;2224;49.814;8.650;2023-05-09T01:45:33;19.20;;;17.30;;
4422;SDS011;2224;49.814;8.650;2023-05-09T01:48:00;18.50;;;16.80;;
4422;SDS011;2224;49.814;8.650;2023-05-09T01:50:27;17.43;;;15.77;;
4422;SDS011;2224;49.814;8.650;2023-05-09T01:52:54;19.87;;;15.63;;
4422;SDS011;2224;49.814;8.650;2023-05-09T01:55:21;17.73;;;15.93;;
4422;SDS011;2224;49.814;8.650;2023-05-09T01:57:52;18.23;;;16.20;;
4422;SDS011;2224;49.814;8.650;2023-05-09T02:00:18;18.10;;;16.30;;
4422;SDS011;2224;49.814;8.650;2023-05-09T02:02:44;18.23;;;16.33;;
4422;SDS011;2224;49.814;8.650;2023-05-09T02:05:09;17.73;;;16.03;;
4422;SDS011;2224;49.814;8.650;2023-05-09T02:07:35;17.87;;;16.27;;
4422;SDS011;2224;49.814;8.650;2023-05-09T02:10:01;19.70;;;17.80;;
4422;SDS011;2224;49.814;8.650;2023-05-09T02:12:27;19.27;;;17.37;;
4422;SDS011;2224;49.814;8.650;2023-05-09T02:14:52;20.37;;;17.90;;
4422;SDS011;2224;49.814;8.650;2023-05-09T02:17:18;18.47;;;16.17;;
4422;SDS011;2224;49.814;8.650;2023-05-09T02:19:45;20.90;;;17.47;;
4422;SDS011;2224;49.814;8.650;2023-05-09T02:22:11;20.20;;;16.67;;
4422;SDS011;2224;49.814;8.650;2023-05-09T02:24:37;18.83;;;16.83;;
4422;SDS011;2224;49.814;8.650;2023-05-09T02:27:02;18.63;;;16.83;;
4422;SDS011;2224;49.814;8.650;2023-05-09T02:29:30;18.67;;;17.00;;
4422;SDS011;2224;49.814;8.650;2023-05-09T02:32:08;20.30;;;18.10;;
4422;SDS011;2224;49.814;8.650;2023-05-09T02:34:36;19.70;;;17.77;;
4422;SDS011;2224;49.814;8.650;2023-05-09T02:37:03;19.70;;;17.70;;
4422;SDS011;2224;49.814;8.650;2023-05-09T02:39:29;20.43;;;18.43;;
4422;SDS011;2224;49.814;8.650;2023-05-09T02:41:55;20.80;;;18.60;;
4422;SDS011;2224;49.814;8.650;2023-05-09T02:44:20;18.40;;;16.53;;
4422;SDS011;2224;49.814;8.650;2023-05-09T02:46:45;18.50;;;16.70;;
4422;SDS011;2224;49.814;8.650;2023-05-09T02:49:11;19.67;;;17.67;;
4422;SDS011;2224;49.814;8.650;2023-05-09T02:51:36;19.43;;;17.53;;
4422;SDS011;2224;49.814;8.650;2023-05-09T02:54:01;20.07;;;18.20;;
4422;SDS011;2224;49.814;8.650;2023-05-09T02:56:27;19.93;;;17.97;;
4422;SDS011;2224;49.814;8.650;2023-05-09T02:58:52;20.30;;;18.30;;
4422;SDS011;2224;49.814;8.650;2023-05-09T03:01:18;22.30;;;19.07;;
4422;SDS011;2224;49.814;8.650;2023-05-09T03:03:43;19.83;;;17.93;;
4422;SDS011;2224;49.814;8.650;2023-05-09T03:06:08;21.87;;;19.67;;
4422;SDS011;2224;49.814;8.650;2023-05-09T03:08:33;20.53;;;18.50;;
4422;SDS011;2224;49.814;8.650;2023-05-09T03:10:59;22.60;;;20.20;;
4422;SDS011;2224;49.814;8.650;2023-05-09T03:13:24;26.40;;;20.53;;
4422;SDS011;2224;49.814;8.650;2023-05-09T03:15:50;23.40;;;21.00;;
4422;SDS011;2224;49.814;8.650;2023-05-09T03:18:15;23.27;;;20.73;;
4422;SDS011;2224;49.814;8.650;2023-05-09T03:20:40;21.07;;;18.87;;
4422;SDS011;2224;49.814;8.650;2023-05-09T03:23:06;22.23;;;20.00;;
4422;SDS011;2224;49.814;8.650;2023-05-09T03:25:31;21.57;;;19.40;;
4422;SDS011;2224;49.814;8.650;2023-05-09T03:27:56;23.00;;;20.60;;
4422;SDS011;2224;49.814;8.650;2023-05-09T03:30:22;22.13;;;19.90;;
4422;SDS011;2224;49.814;8.650;2023-05-09T03:32:47;25.53;;;20.53;;
4422;SDS011;2224;49.814;8.650;2023-05-09T03:35:12;22.97;;;20.50;;
4422;SDS011;2224;49.814;8.650;2023-05-09T03:37:38;21.60;;;19.30;;
4422;SDS011;2224;49.814;8.650;2023-05-09T03:40:03;24.83;;;20.30;;
4422;SDS011;2224;49.814;8.650;2023-05-09T03:42:30;23.60;;;20.50;;
4422;SDS011;2224;49.814;8.650;2023-05-09T03:44:55;22.63;;;20.33;;
4422;SDS011;2224;49.814;8.650;2023-05-09T03:47:21;23.40;;;21.00;;
4422;SDS011;2224;49.814;8.650;2023-05-09T03:49:46;21.37;;;19.27;;
4422;SDS011;2224;49.814;8.650;2023-05-09T03:52:12;22.20;;;19.90;;
4422;SDS011;2224;49.814;8.650;2023-05-09T03:54:37;22.40;;;20.10;;
4422;SDS011;2224;49.814;8.650;2023-05-09T03:57:02;22.57;;;20.27;;
4422;SDS011;2224;49.814;8.650;2023-05-09T03:59:28;23.70;;;20.20;;
4422;SDS011;2224;49.814;8.650;2023-05-09T04:01:53;22.90;;;19.90;;
4422;SDS011;2224;49.814;8.650;2023-05-09T04:04:18;25.00;;;19.30;;
4422;SDS011;2224;49.814;8.650;2023-05-09T04:06:44;22.37;;;19.97;;
4422;SDS011;2224;49.814;8.650;2023-05-09T04:09:09;22.50;;;20.17;;
4422;SDS011;2224;49.814;8.650;2023-05-09T04:11:34;23.07;;;20.33;;
4422;SDS011;2224;49.814;8.650;2023-05-09T04:14:00;23.17;;;20.80;;
4422;SDS011;2224;49.814;8.650;2023-05-09T04:16:25;23.40;;;20.70;;
4422;SDS011;2224;49.814;8.650;2023-05-09T04:18:50;23.00;;;20.60;;
4422;SDS011;2224;49.814;8.650;2023-05-09T04:21:16;27.20;;;20.87;;
4422;SDS011;2224;49.814;8.650;2023-05-09T04:23:41;23.60;;;20.60;;
4422;SDS011;2224;49.814;8.650;2023-05-09T04:26:07;23.30;;;19.87;;
4422;SDS011;2224;49.814;8.650;2023-05-09T04:28:33;21.83;;;19.63;;
4422;SDS011;2224;49.814;8.650;2023-05-09T04:30:59;22.60;;;20.17;;
4422;SDS011;2224;49.814;8.650;2023-05-09T04:33:24;26.20;;;20.27;;
4422;SDS011;2224;49.814;8.650;2023-05-09T04:35:49;21.33;;;19.23;;
4422;SDS011;2224;49.814;8.650;2023-05-09T04:38:15;22.40;;;19.20;;
4422;SDS011;2224;49.814;8.650;2023-05-09T04:40:41;22.33;;;20.10;;
4422;SDS011;2224;49.814;8.650;2023-05-09T04:43:06;20.70;;;18.57;;
4422;SDS011;2224;49.814;8.650;2023-05-09T04:45:31;23.40;;;20.90;;
4422;SDS011;2224;49.814;8.650;2023-05-09T04:47:57;22.07;;;19.10;;
4422;SDS011;2224;49.814;8.650;2023-05-09T04:50:22;21.97;;;19.77;;
4422;SDS011;2224;49.814;8.650;2023-05-09T04:52:48;22.17;;;19.80;;
4422;SDS011;2224;49.814;8.650;2023-05-09T04:55:13;24.03;;;19.10;;
4422;SDS011;2224;49.814;8.650;2023-05-09T04:57:39;21.70;;;17.90;;
4422;SDS011;2224;49.814;8.650;2023-05-09T05:00:04;22.40;;;20.10;;
4422;SDS011;2224;49.814;8.650;2023-05-09T05:02:35;20.33;;;18.33;;
4422;SDS011;2224;49.814;8.650;2023-05-09T05:05:00;21.23;;;18.97;;
4422;SDS011;2224;49.814;8.650;2023-05-09T05:07:26;22.07;;;19.67;;
4422;SDS011;2224;49.814;8.650;2023-05-09T05:09:51;22.07;;;19.10;;
4422;SDS011;2224;49.814;8.650;2023-05-09T05:12:16;21.63;;;19.43;;
4422;SDS011;2224;49.814;8.650;2023-05-09T05:14:41;21.10;;;19.00;;
4422;SDS011;2224;49.814;8.650;2023-05-09T05:17:07;21.20;;;19.10;;
4422;SDS011;2224;49.814;8.650;2023-05-09T05:19:32;23.40;;;21.07;;
4422;SDS011;2224;49.814;8.650;2023-05-09T05:21:58;22.40;;;20.10;;
4422;SDS011;2224;49.814;8.650;2023-05-09T05:24:23;22.03;;;19.83;;
4422;SDS011;2224;49.814;8.650;2023-05-09T05:26:48;22.50;;;20.30;;
4422;SDS011;2224;49.814;8.650;2023-05-09T05:29:14;24.03;;;20.47;;
4422;SDS011;2224;49.814;8.650;2023-05-09T05:31:39;21.10;;;18.80;;
4422;SDS011;2224;49.814;8.650;2023-05-09T05:34:05;27.07;;;21.20;;
4422;SDS011;2224;49.814;8.650;2023-05-09T05:36:30;22.23;;;19.93;;
4422;SDS011;2224;49.814;8.650;2023-05-09T05:38:56;22.17;;;19.87;;
4422;SDS011;2224;49.814;8.650;2023-05-09T05:41:21;21.30;;;18.97;;
4422;SDS011;2224;49.814;8.650;2023-05-09T05:43:47;21.40;;;19.17;;
4422;SDS011;2224;49.814;8.650;2023-05-09T05:46:12;21.97;;;19.80;;
4422;SDS011;2224;49.814;8.650;2023-05-09T05:48:38;21.20;;;19.00;;
4422;SDS011;2224;49.814;8.650;2023-05-09T05:51:03;22.87;;;20.03;;
4422;SDS011;2224;49.814;8.650;2023-05-09T05:53:28;22.20;;;20.00;;
4422;SDS011;2224;49.814;8.650;2023-05-09T05:55:53;22.60;;;20.20;;
4422;SDS011;2224;49.814;8.650;2023-05-09T05:58:19;21.70;;;19.40;;
4422;SDS011;2224;49.814;8.650;2023-05-09T06:00:44;20.97;;;18.90;;
4422;SDS011;2224;49.814;8.650;2023-05-09T06:03:09;25.00;;;21.00;;
4422;SDS011;2224;49.814;8.650;2023-05-09T06:05:40;20.67;;;18.47;;
4422;SDS011;2224;49.814;8.650;2023-05-09T06:08:07;23.70;;;21.20;;
4422;SDS011;2224;49.814;8.650;2023-05-09T06:10:32;22.03;;;19.73;;
4422;SDS011;2224;49.814;8.650;2023-05-09T06:12:57;21.00;;;18.80;;
4422;SDS011;2224;49.814;8.650;2023-05-09T06:15:22;22.67;;;20.27;;
4422;SDS011;2224;49.814;8.650;2023-05-09T06:17:48;24.90;;;20.53;;
4422;SDS011;2224;49.814;8.650;2023-05-09T06:20:13;23.40;;;20.90;;
4422;SDS011;2224;49.814;8.650;2023-05-09T06:22:38;25.23;;;22.00;;
4422;SDS011;2224;49.814;8.650;2023-05-09T06:25:04;22.93;;;20.67;;
4422;SDS011;2224;49.814;8.650;2023-05-09T06:27:29;26.20;;;22.90;;
4422;SDS011;2224;49.814;8.650;2023-05-09T06:29:55;22.87;;;20.43;;
4422;SDS011;2224;49.814;8.650;2023-05-09T06:32:20;25.63;;;22.93;;
4422;SDS011;2224;49.814;8.650;2023-05-09T06:34:45;24.40;;;21.87;;
4422;SDS011;2224;49.814;8.650;2023-05-09T06:37:11;23.93;;;21.50;;
4422;SDS011;2224;49.814;8.650;2023-05-09T06:39:36;23.30;;;20.90;;
4422;SDS011;2224;49.814;8.650;2023-05-09T06:42:01;24.50;;;21.43;;
4422;SDS011;2224;49.814;8.650;2023-05-09T06:44:27;23.30;;;20.90;;
4422;SDS011;2224;49.814;8.650;2023-05-09T06:46:52;23.00;;;20.50;;
4422;SDS011;2224;49.814;8.650;2023-05-09T06:49:17;26.00;;;23.20;;
4422;SDS011;2224;49.814;8.650;2023-05-09T06:51:43;23.27;;;20.90;;
4422;SDS011;2224;49.814;8.650;2023-05-09T06:54:08;25.67;;;22.87;;
4422;SDS011;2224;49.814;8.650;2023-05-09T06:56:33;25.83;;;23.07;;
4422;SDS011;2224;49.814;8.650;2023-05-09T06:58:59;25.00;;;22.47;;
4422;SDS011;2224;49.814;8.650;2023-05-09T07:01:24;24.97;;;22.40;;
4422;SDS011;2224;49.814;8.650;2023-05-09T07:03:49;23.70;;;21.27;;
4422;SDS011;2224;49.814;8.650;2023-05-09T07:06:15;24.57;;;21.13;;
4422;SDS011;2224;49.814;8.650;2023-05-09T07:08:40;24.73;;;21.60;;
4422;SDS011;2224;49.814;8.650;2023-05-09T07:11:06;25.60;;;21.13;;
4422;SDS011;2224;49.814;8.650;2023-05-09T07:13:31;22.87;;;20.40;;
4422;SDS011;2224;49.814;8.650;2023-05-09T07:15:56;23.70;;;21.10;;
4422;SDS011;2224;49.814;8.650;2023-05-09T07:18:22;23.23;;;20.80;;
4422;SDS011;2224;49.814;8.650;2023-05-09T07:20:47;23.93;;;21.53;;
4422;SDS011;2224;49.814;8.650;2023-05-09T07:23:12;23.80;;;21.40;;
4422;SDS011;2224;49.814;8.650;2023-05-09T07:25:37;23.03;;;20.67;;
4422;SDS011;2224;49.814;8.650;2023-05-09T07:28:03;22.97;;;20.07;;
4422;SDS011;2224;49.814;8.650;2023-05-09T07:30:28;24.83;;;21.10;;
4422;SDS011;2224;49.814;8.650;2023-05-09T07:32:54;24.00;;;21.50;;
4422;SDS011;2224;49.814;8.650;2023-05-09T07:35:19;24.40;;;21.80;;
4422;SDS011;2224;49.814;8.650;2023-05-09T07:37:45;22.97;;;20.53;;
4422;SDS011;2224;49.814;8.650;2023-05-09T07:40:10;22.17;;;19.87;;
4422;SDS011;2224;49.814;8.650;2023-05-09T07:42:36;22.73;;;20.40;;
4422;SDS011;2224;49.814;8.650;2023-05-09T07:45:02;22.87;;;20.47;;
4422;SDS011;2224;49.814;8.650;2023-05-09T07:47:30;23.40;;;20.80;;
4422;SDS011;2224;49.814;8.650;2023-05-09T07:49:55;22.30;;;19.97;;
4422;SDS011;2224;49.814;8.650;2023-05-09T07:52:21;23.03;;;20.33;;
4422;SDS011;2224;49.814;8.650;2023-05-09T07:54:47;21.83;;;18.87;;
4422;SDS011;2224;49.814;8.650;2023-05-09T07:57:12;24.13;;;19.40;;
4422;SDS011;2224;49.814;8.650;2023-05-09T07:59:37;22.30;;;20.00;;
4422;SDS011;2224;49.814;8.650;2023-05-09T08:02:03;23.07;;;20.67;;
4422;SDS011;2224;49.814;8.650;2023-05-09T08:04:28;20.50;;;18.20;;
4422;SDS011;2224;49.814;8.650;2023-05-09T08:06:53;22.67;;;17.67;;
4422;SDS011;2224;49.814;8.650;2023-05-09T08:09:19;23.63;;;20.07;;
4422;SDS011;2224;49.814;8.650;2023-05-09T08:11:45;22.27;;;20.00;;
4422;SDS011;2224;49.814;8.650;2023-05-09T08:14:11;25.60;;;21.93;;
4422;SDS011;2224;49.814;8.650;2023-05-09T08:16:36;22.60;;;19.73;;
4422;SDS011;2224;49.814;8.650;2023-05-09T08:19:01;22.73;;;20.40;;
4422;SDS011;2224;49.814;8.650;2023-05-09T08:21:27;24.13;;;21.40;;
4422;SDS011;2224;49.814;8.650;2023-05-09T08:23:52;23.03;;;20.70;;
4422;SDS011;2224;49.814;8.650;2023-05-09T08:26:17;25.93;;;21.37;;
4422;SDS011;2224;49.814;8.650;2023-05-09T08:28:43;24.63;;;21.57;;
4422;SDS011;2224;49.814;8.650;2023-05-09T08:31:08;24.27;;;21.70;;
4422;SDS011;2224;49.814;8.650;2023-05-09T08:33:33;25.40;;;22.90;;
4422;SDS011;2224;49.814;8.650;2023-05-09T08:35:59;24.03;;;20.67;;
4422;SDS011;2224;49.814;8.650;2023-05-09T08:38:24;23.43;;;21.03;;
4422;SDS011;2224;49.814;8.650;2023-05-09T08:40:50;26.10;;;19.90;;
4422;SDS011;2224;49.814;8.650;2023-05-09T08:43:15;25.40;;;22.60;;
4422;SDS011;2224;49.814;8.650;2023-05-09T08:45:50;23.20;;;20.40;;
4422;SDS011;2224;49.814;8.650;2023-05-09T08:48:18;23.07;;;20.67;;
4422;SDS011;2224;49.814;8.650;2023-05-09T08:50:45;22.37;;;19.93;;
4422;SDS011;2224;49.814;8.650;2023-05-09T08:53:10;24.20;;;21.70;;
4422;SDS011;2224;49.814;8.650;2023-05-09T08:55:36;23.37;;;19.77;;
4422;SDS011;2224;49.814;8.650;2023-05-09T08:58:02;23.30;;;20.40;;
4422;SDS011;2224;49.814;8.650;2023-05-09T09:00:28;23.43;;;19.60;;
4422;SDS011;2224;49.814;8.650;2023-05-09T09:02:54;20.40;;;17.93;;
4422;SDS011;2224;49.814;8.650;2023-05-09T09:05:21;21.30;;;19.10;;
4422;SDS011;2224;49.814;8.650;2023-05-09T09:07:47;22.10;;;19.77;;
4422;SDS011;2224;49.814;8.650;2023-05-09T09:10:12;22.70;;;20.40;;
4422;SDS011;2224;49.814;8.650;2023-05-09T09:12:39;21.43;;;19.13;;
4422;SDS011;2224;49.814;8.650;2023-05-09T09:15:05;20.50;;;17.50;;
4422;SDS011;2224;49.814;8.650;2023-05-09T09:17:34;20.73;;;18.60;;
4422;SDS011;2224;49.814;8.650;2023-05-09T09:20:02;20.33;;;18.27;;
4422;SDS011;2224;49.814;8.650;2023-05-09T09:22:31;22.67;;;20.17;;
4422;SDS011;2224;49.814;8.650;2023-05-09T09:24:58;20.87;;;18.67;;
4422;SDS011;2224;49.814;8.650;2023-05-09T09:27:25;22.07;;;19.77;;
4422;SDS011;2224;49.814;8.650;2023-05-09T09:29:51;22.60;;;17.70;;
4422;SDS011;2224;49.814;8.650;2023-05-09T09:32:16;21.27;;;19.17;;
4422;SDS011;2224;49.814;8.650;2023-05-09T09:34:43;20.30;;;18.20;;
4422;SDS011;2224;49.814;8.650;2023-05-09T09:37:08;21.23;;;18.33;;
4422;SDS011;2224;49.814;8.650;2023-05-09T09:39:52;20.20;;;18.10;;
4422;SDS011;2224;49.814;8.650;2023-05-09T09:42:18;22.07;;;19.30;;
4422;SDS011;2224;49.814;8.650;2023-05-09T09:44:44;21.47;;;19.10;;
4422;SDS011;2224;49.814;8.650;2023-05-09T09:47:09;20.67;;;18.47;;
4422;SDS011;2224;49.814;8.650;2023-05-09T09:49:35;22.70;;;17.90;;
4422;SDS011;2224;49.814;8.650;2023-05-09T09:52:00;21.97;;;19.53;;
4422;SDS011;2224;49.814;8.650;2023-05-09T09:54:26;22.83;;;20.40;;
4422;SDS011;2224;49.814;8.650;2023-05-09T09:56:52;21.10;;;18.93;;
4422;SDS011;2224;49.814;8.650;2023-05-09T09:59:22;20.70;;;18.50;;
4422;SDS011;2224;49.814;8.650;2023-05-09T10:01:56;20.37;;;18.37;;
4422;SDS011;2224;49.814;8.650;2023-05-09T10:04:26;20.47;;;18.37;;
4422;SDS011;2224;49.814;8.650;2023-05-09T10:06:53;19.50;;;17.53;;
4422;SDS011;2224;49.814;8.650;2023-05-09T10:09:23;22.33;;;19.37;;
4422;SDS011;2224;49.814;8.650;2023-05-09T10:11:49;20.33;;;18.33;;
4422;SDS011;2224;49.814;8.650;2023-05-09T10:14:19;22.87;;;19.80;;
4422;SDS011;2224;49.814;8.650;2023-05-09T10:16:48;24.60;;;21.47;;
4422;SDS011;2224;49.814;8.650;2023-05-09T10:19:18;21.30;;;19.20;;
4422;SDS011;2224;49.814;8.650;2023-05-09T10:21:56;19.80;;;17.70;;
4422;SDS011;2224;49.814;8.650;2023-05-09T10:24:27;22.73;;;20.33;;
4422;SDS011;2224;49.814;8.650;2023-05-09T10:26:58;19.63;;;17.53;;
4422;SDS011;2224;49.814;8.650;2023-05-09T10:29:28;17.90;;;16.10;;
4422;SDS011;2224;49.814;8.650;2023-05-09T10:31:56;17.30;;;15.60;;
4422;SDS011;2224;49.814;8.650;2023-05-09T10:34:23;17.13;;;15.53;;
4422;SDS011;2224;49.814;8.650;2023-05-09T10:36:49;18.00;;;14.87;;
4422;SDS011;2224;49.814;8.650;2023-05-09T10:39:15;15.63;;;14.00;;
4422;SDS011;2224;49.814;8.650;2023-05-09T10:41:41;13.93;;;12.47;;
4422;SDS011;2224;49.814;8.650;2023-05-09T10:44:06;15.80;;;14.20;;
4422;SDS011;2224;49.814;8.650;2023-05-09T10:46:32;14.57;;;13.17;;
4422;SDS011;2224;49.814;8.650;2023-05-09T10:48:57;14.30;;;12.90;;
4422;SDS011;2224;49.814;8.650;2023-05-09T10:51:23;14.23;;;12.93;;
4422;SDS011;2224;49.814;8.650;2023-05-09T10:53:49;14.30;;;12.90;;
4422;SDS011;2224;49.814;8.650;2023-05-09T10:58:50;13.53;;;12.13;;
4422;SDS011;2224;49.814;8.650;2023-05-09T11:01:17;13.10;;;11.90;;
4422;SDS011;2224;49.814;8.650;2023-05-09T11:03:56;12.90;;;11.70;;
4422;SDS011;2224;49.814;8.650;2023-05-09T11:06:38;12.30;;;11.10;;
4422;SDS011;2224;49.814;8.650;2023-05-09T11:11:57;13.10;;;11.73;;
4422;SDS011;2224;49.814;8.650;2023-05-09T11:17:12;13.10;;;10.70;;
4422;SDS011;2224;49.814;8.650;2023-05-09T11:22:13;12.60;;;11.37;;
4422;SDS011;2224;49.814;8.650;2023-05-09T11:24:52;12.27;;;10.63;;
4422;SDS011;2224;49.814;8.650;2023-05-09T11:27:24;11.23;;;10.17;;
4422;SDS011;2224;49.814;8.650;2023-05-09T11:29:51;10.07;;;9.07;;
4422;SDS011;2224;49.814;8.650;2023-05-09T11:32:20;10.40;;;9.30;;
4422;SDS011;2224;49.814;8.650;2023-05-09T11:34:47;9.70;;;8.70;;
4422;SDS011;2224;49.814;8.650;2023-05-09T11:37:15;9.90;;;8.90;;
4422;SDS011;2224;49.814;8.650;2023-05-09T11:40:00;9.43;;;8.63;;
4422;SDS011;2224;49.814;8.650;2023-05-09T11:42:30;9.30;;;8.40;;
4422;SDS011;2224;49.814;8.650;2023-05-09T11:44:56;11.63;;;8.33;;
4422;SDS011;2224;49.814;8.650;2023-05-09T11:47:23;9.53;;;8.73;;
4422;SDS011;2224;49.814;8.650;2023-05-09T11:49:49;8.33;;;7.63;;
4422;SDS011;2224;49.814;8.650;2023-05-09T11:52:15;8.90;;;8.00;;
4422;SDS011;2224;49.814;8.650;2023-05-09T11:54:40;9.20;;;8.40;;
4422;SDS011;2224;49.814;8.650;2023-05-09T11:57:06;8.37;;;7.67;;
4422;SDS011;2224;49.814;8.650;2023-05-09T11:59:32;8.00;;;7.30;;
4422;SDS011;2224;49.814;8.650;2023-05-09T12:02:04;8.47;;;7.73;;
4422;SDS011;2224;49.814;8.650;2023-05-09T12:04:30;11.83;;;7.93;;
4422;SDS011;2224;49.814;8.650;2023-05-09T12:06:58;10.40;;;8.40;;
4422;SDS011;2224;49.814;8.650;2023-05-09T12:09:24;7.80;;;7.10;;
4422;SDS011;2224;49.814;8.650;2023-05-09T12:11:54;7.60;;;6.90;;
4422;SDS011;2224;49.814;8.650;2023-05-09T12:14:29;7.40;;;6.70;;
4422;SDS011;2224;49.814;8.650;2023-05-09T12:16:56;8.07;;;7.43;;
4422;SDS011;2224;49.814;8.650;2023-05-09T12:19:22;6.47;;;5.77;;
4422;SDS011;2224;49.814;8.650;2023-05-09T12:21:52;7.67;;;6.97;;
4422;SDS011;2224;49.814;8.650;2023-05-09T12:24:19;8.70;;;6.70;;
4422;SDS011;2224;49.814;8.650;2023-05-09T12:26:46;7.20;;;6.60;;
4422;SDS011;2224;49.814;8.650;2023-05-09T12:29:12;7.20;;;6.40;;
4422;SDS011;2224;49.814;8.650;2023-05-09T12:31:37;6.80;;;6.23;;
4422;SDS011;2224;49.814;8.650;2023-05-09T12:34:03;6.63;;;6.00;;
4422;SDS011;2224;49.814;8.650;2023-05-09T12:36:33;7.00;;;6.40;;
4422;SDS011;2224;49.814;8.650;2023-05-09T12:38:58;7.80;;;6.50;;
4422;SDS011;2224;49.814;8.650;2023-05-09T12:41:24;7.57;;;6.77;;
4422;SDS011;2224;49.814;8.650;2023-05-09T12:43:49;6.37;;;5.87;;
4422;SDS011;2224;49.814;8.650;2023-05-09T12:46:18;5.87;;;5.40;;
4422;SDS011;2224;49.814;8.650;2023-05-09T12:48:44;5.20;;;4.80;;
4422;SDS011;2224;49.814;8.650;2023-05-09T12:51:11;5.63;;;5.20;;
4422;SDS011;2224;49.814;8.650;2023-05-09T12:53:37;5.33;;;4.93;;
4422;SDS011;2224;49.814;8.650;2023-05-09T12:56:04;5.77;;;5.27;;
4422;SDS011;2224;49.814;8.650;2023-05-09T12:58:36;7.00;;;6.40;;
4422;SDS011;2224;49.814;8.650;2023-05-09T13:01:04;6.20;;;5.70;;
4422;SDS011;2224;49.814;8.650;2023-05-09T13:03:30;6.23;;;5.73;;
4422;SDS011;2224;49.814;8.650;2023-05-09T13:06:02;5.97;;;5.47;;
4422;SDS011;2224;49.814;8.650;2023-05-09T13:08:29;6.20;;;5.70;;
4422;SDS011;2224;49.814;8.650;2023-05-09T13:10:55;6.23;;;5.73;;
4422;SDS011;2224;49.814;8.650;2023-05-09T13:13:27;5.80;;;5.30;;
4422;SDS011;2224;49.814;8.650;2023-05-09T13:15:53;6.67;;;6.07;;
4422;SDS011;2224;49.814;8.650;2023-05-09T13:18:18;5.00;;;4.60;;
4422;SDS011;2224;49.814;8.650;2023-05-09T13:20:44;5.93;;;5.37;;
4422;SDS011;2224;49.814;8.650;2023-05-09T13:23:10;5.73;;;5.23;;
4422;SDS011;2224;49.814;8.650;2023-05-09T13:25:35;6.00;;;5.43;;
4422;SDS011;2224;49.814;8.650;2023-05-09T13:28:00;5.53;;;5.00;;
4422;SDS011;2224;49.814;8.650;2023-05-09T13:30:26;5.40;;;5.00;;
4422;SDS011;2224;49.814;8.650;2023-05-09T13:32:51;5.20;;;4.80;;
4422;SDS011;2224;49.814;8.650;2023-05-09T13:35:16;5.93;;;5.37;;
4422;SDS011;2224;49.814;8.650;2023-05-09T13:37:42;6.63;;;6.03;;
4422;SDS011;2224;49.814;8.650;2023-05-09T13:40:07;5.90;;;5.40;;
4422;SDS011;2224;49.814;8.650;2023-05-09T13:42:33;5.83;;;5.33;;
4422;SDS011;2224;49.814;8.650;2023-05-09T13:44:59;6.13;;;5.63;;
4422;SDS011;2224;49.814;8.650;2023-05-09T13:47:25;6.27;;;5.73;;
4422;SDS011;2224;49.814;8.650;2023-05-09T13:49:50;7.20;;;5.77;;
4422;SDS011;2224;49.814;8.650;2023-05-09T13:52:16;6.07;;;5.53;;
4422;SDS011;2224;49.814;8.650;2023-05-09T13:54:41;7.53;;;5.90;;
4422;SDS011;2224;49.814;8.650;2023-05-09T13:57:07;6.50;;;5.77;;
4422;SDS011;2224;49.814;8.650;2023-05-09T13:59:32;5.80;;;5.20;;
4422;SDS011;2224;49.814;8.650;2023-05-09T14:01:58;6.10;;;5.60;;
4422;SDS011;2224;49.814;8.650;2023-05-09T14:04:27;6.13;;;5.60;;
4422;SDS011;2224;49.814;8.650;2023-05-09T14:06:54;6.20;;;5.60;;
4422;SDS011;2224;49.814;8.650;2023-05-09T14:09:19;7.47;;;6.87;;
4422;SDS011;2224;49.814;8.650;2023-05-09T14:11:46;8.03;;;6.90;;
4422;SDS011;2224;49.814;8.650;2023-05-09T14:14:12;6.97;;;6.47;;
4422;SDS011;2224;49.814;8.650;2023-05-09T14:16:38;6.77;;;6.13;;
4422;SDS011;2224;49.814;8.650;2023-05-09T14:19:03;6.47;;;5.97;;
4422;SDS011;2224;49.814;8.650;2023-05-09T14:21:28;7.53;;;6.97;;
4422;SDS011;2224;49.814;8.650;2023-05-09T14:23:54;9.23;;;7.50;;
4422;SDS011;2224;49.814;8.650;2023-05-09T14:26:19;8.03;;;7.43;;
4422;SDS011;2224;49.814;8.650;2023-05-09T14:28:46;8.40;;;7.67;;
4422;SDS011;2224;49.814;8.650;2023-05-09T14:31:11;9.13;;;8.23;;
4422;SDS011;2224;49.814;8.650;2023-05-09T14:33:37;8.00;;;7.40;;
4422;SDS011;2224;49.814;8.650;2023-05-09T14:36:02;8.73;;;7.60;;
4422;SDS011;2224;49.814;8.650;2023-05-09T14:38:28;11.30;;;8.57;;
4422;SDS011;2224;49.814;8.650;2023-05-09T14:40:53;10.13;;;9.10;;
4422;SDS011;2224;49.814;8.650;2023-05-09T14:43:20;14.33;;;11.27;;
4422;SDS011;2224;49.814;8.650;2023-05-09T14:45:46;12.37;;;11.07;;
4422;SDS011;2224;49.814;8.650;2023-05-09T14:48:11;12.70;;;11.40;;
4422;SDS011;2224;49.814;8.650;2023-05-09T14:50:37;17.03;;;13.77;;
4422;SDS011;2224;49.814;8.650;2023-05-09T14:53:03;17.87;;;14.73;;
4422;SDS011;2224;49.814;8.650;2023-05-09T14:55:28;17.07;;;14.90;;
4422;SDS011;2224;49.814;8.650;2023-05-09T14:57:55;14.13;;;12.63;;
4422;SDS011;2224;49.814;8.650;2023-05-09T15:00:21;14.47;;;13.17;;
4422;SDS011;2224;49.814;8.650;2023-05-09T15:02:47;16.50;;;14.90;;
4422;SDS011;2224;49.814;8.650;2023-05-09T15:05:13;20.27;;;16.07;;
4422;SDS011;2224;49.814;8.650;2023-05-09T15:07:38;18.37;;;16.13;;
4422;SDS011;2224;49.814;8.650;2023-05-09T15:10:04;17.10;;;14.80;;